Time;durP1;ratioP1;P1;durP2;ratioP2;P2;SDS_P1;SDS_P2;PMS_P1;PMS_P2;Temp;Humidity;BMP_temperature;BMP_pressure;BME280_temperature;BME280_humidity;BME280_pressure;Samples;Min_cycle;Max_cycle;Signal;HPM_P1;HPM_P2
2021/12/13 00:02:03;;;;;;;19.55;13.57;;;;;;;6.94;100.00;100495.81;5052423;28;20192;-74
2021/12/13 00:04:34;;;;;;;14.88;11.00;;;;;;;7.09;100.00;100500.75;5052699;28;20221;-74
2021/12/13 00:07:05;;;;;;;19.25;12.30;;;;;;;7.18;100.00;100497.78;5052455;28;20217;-74
2021/12/13 00:09:39;;;;;;;19.17;11.55;;;;;;;7.12;100.00;100495.28;5052268;28;20286;-73
2021/12/13 00:12:08;;;;;;;18.70;12.20;;;;;;;7.06;100.00;100498.16;5052456;28;20650;-74
2021/12/13 00:14:38;;;;;;;17.88;11.48;;;;;;;7.06;100.00;100490.13;5055752;28;20211;-74
2021/12/13 00:17:09;;;;;;;15.23;10.10;;;;;;;6.95;100.00;100489.56;5056641;28;20523;-74
2021/12/13 00:19:40;;;;;;;18.20;11.95;;;;;;;7.04;100.00;100498.19;5056230;28;20192;-74
2021/12/13 00:22:12;;;;;;;17.17;13.07;;;;;;;6.96;100.00;100499.34;5056456;28;20548;-73
2021/12/13 00:24:43;;;;;;;16.50;11.55;;;;;;;7.00;100.00;100488.50;5056299;28;20548;-74
2021/12/13 00:27:13;;;;;;;16.42;11.43;;;;;;;7.04;100.00;100497.31;5056146;28;20194;-73
2021/12/13 00:29:46;;;;;;;14.70;10.77;;;;;;;6.86;100.00;100494.25;5056082;28;20581;-74
2021/12/13 00:32:19;;;;;;;17.77;11.77;;;;;;;6.78;100.00;100496.25;5056239;28;20203;-73
2021/12/13 00:34:50;;;;;;;19.10;11.02;;;;;;;6.67;100.00;100496.56;5056066;28;20194;-74
2021/12/13 00:37:19;;;;;;;15.68;11.50;;;;;;;6.56;100.00;100501.34;5055983;28;20190;-73
2021/12/13 00:39:52;;;;;;;18.60;11.93;;;;;;;6.65;100.00;100494.88;5055653;28;20192;-73
2021/12/13 00:42:22;;;;;;;21.23;14.38;;;;;;;6.63;100.00;100499.38;5055513;28;20293;-73
2021/12/13 00:44:52;;;;;;;17.63;11.38;;;;;;;6.62;100.00;100495.81;5055758;28;20553;-74
2021/12/13 00:47:22;;;;;;;19.17;12.65;;;;;;;6.63;100.00;100497.56;5055462;28;20229;-73
2021/12/13 00:49:54;;;;;;;20.35;12.77;;;;;;;6.65;100.00;100505.56;5055612;28;20686;-73
2021/12/13 00:52:21;;;;;;;18.23;13.18;;;;;;;6.78;100.00;100504.28;5055983;28;20194;-73
2021/12/13 00:54:48;;;;;;;18.13;11.30;;;;;;;6.89;100.00;100504.84;5055508;28;20283;-75
2021/12/13 00:57:38;;;;;;;17.33;12.25;;;;;;;6.95;100.00;100502.94;5055503;28;20211;-74
2021/12/13 01:00:15;;;;;;;20.75;12.13;;;;;;;6.99;100.00;100505.50;5055552;28;20209;-74
2021/12/13 01:02:47;;;;;;;16.70;11.30;;;;;;;7.07;100.00;100497.22;5055508;28;20195;-72
2021/12/13 01:05:17;;;;;;;18.88;12.63;;;;;;;7.30;100.00;100501.88;5055611;28;20195;-75
2021/12/13 01:08:14;;;;;;;18.40;12.32;;;;;;;7.28;100.00;100496.59;5055615;28;20676;-72
2021/12/13 01:11:21;;;;;;;15.63;10.43;;;;;;;7.35;100.00;100499.97;5055247;28;20246;-73
2021/12/13 01:14:14;;;;;;;19.50;11.43;;;;;;;7.11;100.00;100493.53;5054881;28;20221;-74
2021/12/13 01:16:58;;;;;;;14.40;11.02;;;;;;;7.07;100.00;100514.16;5046559;28;20616;-74
2021/12/13 01:19:47;;;;;;;16.98;11.45;;;;;;;7.19;100.00;100515.63;5055264;28;20262;-75
2021/12/13 01:22:42;;;;;;;19.10;10.55;;;;;;;7.21;100.00;100516.47;5055335;28;20242;-74
2021/12/13 01:25:38;;;;;;;17.63;10.60;;;;;;;7.30;100.00;100516.19;5054015;28;20690;-75
2021/12/13 01:28:11;;;;;;;15.68;10.80;;;;;;;7.29;100.00;100518.91;5055177;28;20683;-74
2021/12/13 01:30:41;;;;;;;16.38;10.95;;;;;;;7.33;100.00;100515.22;5055120;28;20716;-74
2021/12/13 01:33:12;;;;;;;14.63;9.40;;;;;;;7.27;100.00;100516.25;5054739;28;20198;-74
2021/12/13 01:35:45;;;;;;;14.30;11.52;;;;;;;7.31;100.00;100517.94;5054500;28;20208;-72
2021/12/13 01:38:15;;;;;;;15.75;10.68;;;;;;;7.40;100.00;100516.78;5054407;28;20240;-73
2021/12/13 01:40:46;;;;;;;13.10;9.77;;;;;;;7.35;100.00;100517.81;5054970;28;20195;-73
2021/12/13 01:43:18;;;;;;;15.77;10.40;;;;;;;7.09;100.00;100514.13;5054316;28;20198;-73
2021/12/13 01:45:48;;;;;;;14.35;11.02;;;;;;;7.01;100.00;100519.72;5054708;28;20276;-73
2021/12/13 01:48:22;;;;;;;14.57;10.25;;;;;;;6.99;100.00;100524.25;5054440;28;20213;-73
2021/12/13 01:51:03;;;;;;;16.00;11.90;;;;;;;6.93;100.00;100526.22;5054367;28;20215;-73
2021/12/13 01:53:36;;;;;;;16.73;11.23;;;;;;;6.81;100.00;100530.13;5054658;28;20193;-73
2021/12/13 01:56:12;;;;;;;15.32;11.27;;;;;;;6.87;100.00;100521.88;5054659;28;20219;-73
2021/12/13 01:58:42;;;;;;;14.50;10.95;;;;;;;7.02;100.00;100521.47;5054512;28;20191;-73
2021/12/13 02:01:12;;;;;;;15.10;10.43;;;;;;;6.88;100.00;100513.81;5054564;28;20207;-73
2021/12/13 02:03:48;;;;;;;16.75;10.90;;;;;;;6.85;100.00;100513.03;5054406;28;20182;-75
2021/12/13 02:06:25;;;;;;;15.98;10.98;;;;;;;6.68;100.00;100521.53;5054065;28;20296;-72
2021/12/13 02:08:55;;;;;;;14.57;9.80;;;;;;;6.74;100.00;100525.81;5054240;28;20652;-74
2021/12/13 02:11:23;;;;;;;16.00;10.23;;;;;;;6.81;100.00;100519.41;5053581;28;20201;-73
2021/12/13 02:14:06;;;;;;;15.40;9.90;;;;;;;6.92;100.00;100519.09;5054104;28;20189;-75
2021/12/13 02:19:31;;;;;;;13.95;9.63;;;;;;;7.16;100.00;100517.50;5053699;28;20187;-75
2021/12/13 02:22:07;;;;;;;13.35;10.05;;;;;;;7.16;100.00;100522.88;5053922;28;20188;-75
2021/12/13 02:24:37;;;;;;;15.70;9.20;;;;;;;7.17;100.00;100520.16;5053978;28;20186;-72
2021/12/13 02:27:07;;;;;;;13.80;9.27;;;;;;;6.93;100.00;100526.22;5053825;28;20711;-73
2021/12/13 02:29:38;;;;;;;11.75;8.57;;;;;;;7.12;100.00;100521.19;5053625;28;20300;-74
2021/12/13 02:32:09;;;;;;;13.55;9.45;;;;;;;7.15;100.00;100523.81;5053732;28;20205;-73
2021/12/13 02:34:37;;;;;;;13.30;9.38;;;;;;;7.36;100.00;100525.81;5053377;28;20206;-73
2021/12/13 02:37:06;;;;;;;13.23;9.27;;;;;;;7.13;100.00;100517.59;5053003;28;20236;-74
2021/12/13 02:39:40;;;;;;;12.30;8.88;;;;;;;7.20;100.00;100521.84;5053098;28;20226;-75
2021/12/13 02:42:09;;;;;;;13.35;9.48;;;;;;;7.04;100.00;100524.09;5053239;28;20186;-73
2021/12/13 02:44:41;;;;;;;10.15;8.23;;;;;;;6.85;100.00;100518.38;5053297;28;20291;-73
2021/12/13 02:47:16;;;;;;;11.30;8.70;;;;;;;7.09;100.00;100530.19;5053476;28;20534;-73
2021/12/13 02:49:43;;;;;;;13.43;8.77;;;;;;;7.19;100.00;100526.34;5053243;28;20650;-73
2021/12/13 02:52:14;;;;;;;13.23;9.18;;;;;;;7.02;100.00;100525.94;5053314;28;20612;-73
2021/12/13 02:54:45;;;;;;;10.13;8.05;;;;;;;7.16;100.00;100523.72;5052947;28;20188;-73
2021/12/13 02:57:16;;;;;;;11.88;8.73;;;;;;;7.10;100.00;100524.81;5052976;28;20190;-74
2021/12/13 02:59:46;;;;;;;13.70;8.38;;;;;;;6.73;100.00;100519.59;5053064;28;20181;-73
2021/12/13 03:02:18;;;;;;;11.00;8.10;;;;;;;6.85;100.00;100523.72;5053439;28;20194;-73
2021/12/13 03:04:45;;;;;;;12.23;8.93;;;;;;;6.97;100.00;100527.88;5053273;28;20618;-73
2021/12/13 03:07:16;;;;;;;10.07;7.97;;;;;;;6.84;100.00;100532.69;5053274;28;20547;-74
2021/12/13 03:09:47;;;;;;;11.07;8.65;;;;;;;6.86;100.00;100528.19;5053093;28;20662;-72
2021/12/13 03:12:17;;;;;;;12.93;8.32;;;;;;;6.76;100.00;100524.91;5052949;28;20230;-72
2021/12/13 03:14:47;;;;;;;12.27;8.43;;;;;;;6.84;100.00;100522.00;5052928;28;20190;-74
2021/12/13 03:17:18;;;;;;;13.55;7.88;;;;;;;6.64;100.00;100512.69;5052816;28;20188;-72
2021/12/13 03:19:59;;;;;;;11.43;8.60;;;;;;;6.69;100.00;100515.25;5053102;28;20287;-75
2021/12/13 03:22:57;;;;;;;12.30;8.50;;;;;;;6.60;100.00;100512.81;5053112;28;20194;-74
2021/12/13 03:25:34;;;;;;;13.95;9.20;;;;;;;6.79;100.00;100511.41;5053007;28;20182;-74
2021/12/13 03:28:13;;;;;;;13.57;9.20;;;;;;;6.85;100.00;100513.03;5052960;28;20208;-73
2021/12/13 03:30:47;;;;;;;11.55;9.23;;;;;;;6.89;100.00;100510.22;5052231;28;20226;-73
2021/12/13 03:33:16;;;;;;;11.10;8.15;;;;;;;7.05;100.00;100516.00;5052625;28;20291;-74
2021/12/13 03:35:45;;;;;;;13.73;9.32;;;;;;;6.95;100.00;100511.84;5052180;28;20199;-75
2021/12/13 03:38:16;;;;;;;13.07;9.60;;;;;;;6.99;100.00;100502.81;5052328;28;20238;-73
2021/12/13 03:40:44;;;;;;;14.90;8.60;;;;;;;6.77;100.00;100499.00;5052787;28;20195;-73
2021/12/13 03:43:15;;;;;;;11.70;8.18;;;;;;;6.96;100.00;100500.22;5052694;28;20197;-73
2021/12/13 03:45:45;;;;;;;11.90;8.90;;;;;;;7.02;100.00;100499.16;5052244;28;20190;-73
2021/12/13 03:48:16;;;;;;;10.27;8.10;;;;;;;7.08;100.00;100496.31;5051794;28;20192;-73
2021/12/13 03:50:47;;;;;;;10.77;8.10;;;;;;;7.15;100.00;100492.53;5052397;28;20312;-73
2021/12/13 03:53:16;;;;;;;11.50;8.15;;;;;;;7.05;100.00;100494.59;5052725;28;20191;-73
2021/12/13 03:55:46;;;;;;;9.77;6.95;;;;;;;6.96;100.00;100489.50;5052560;28;20191;-73
2021/12/13 03:58:17;;;;;;;11.10;7.95;;;;;;;6.98;100.00;100492.13;5052946;28;20282;-73
2021/12/13 04:00:48;;;;;;;13.40;9.25;;;;;;;6.86;100.00;100488.91;5052614;28;20290;-73
2021/12/13 04:03:18;;;;;;;11.02;8.18;;;;;;;6.84;100.00;100490.72;5052455;28;20247;-73
2021/12/13 04:05:46;;;;;;;9.93;8.00;;;;;;;6.95;100.00;100492.25;5052199;28;20198;-73
2021/12/13 04:08:16;;;;;;;13.40;8.65;;;;;;;6.96;100.00;100496.66;5052647;28;20217;-73
2021/12/13 04:10:47;;;;;;;9.38;8.05;;;;;;;6.83;100.00;100496.16;5052558;28;20209;-73
2021/12/13 04:13:17;;;;;;;10.50;8.43;;;;;;;6.93;100.00;100486.03;5052590;28;20215;-74
2021/12/13 04:16:00;;;;;;;10.60;8.02;;;;;;;6.83;100.00;100480.97;5052589;28;20299;-74
2021/12/13 04:19:06;;;;;;;15.88;9.20;;;;;;;6.97;100.00;100485.91;5052242;28;20200;-74
2021/12/13 04:21:40;;;;;;;11.00;7.55;;;;;;;7.00;100.00;100484.94;5051922;28;20252;-74
2021/12/13 04:24:09;;;;;;;11.52;8.57;;;;;;;6.90;100.00;100484.34;5052021;28;20192;-74
2021/12/13 04:26:40;;;;;;;10.45;7.68;;;;;;;6.84;100.00;100484.50;5052350;28;20202;-74
2021/12/13 04:29:15;;;;;;;10.20;7.65;;;;;;;6.97;100.00;100488.59;5052323;28;20217;-74
2021/12/13 04:31:42;;;;;;;12.55;8.20;;;;;;;6.77;100.00;100501.69;5052296;28;20229;-74
2021/12/13 04:34:08;;;;;;;13.32;8.05;;;;;;;7.06;100.00;100498.16;5052065;28;20548;-74
2021/12/13 04:36:41;;;;;;;12.05;8.35;;;;;;;7.09;100.00;100498.06;5052117;28;20209;-74
2021/12/13 04:39:15;;;;;;;9.15;7.32;;;;;;;6.97;100.00;100498.44;5051942;28;20589;-74
2021/12/13 04:41:46;;;;;;;10.48;7.40;;;;;;;6.80;100.00;100499.78;5052137;28;20588;-74
2021/12/13 04:44:17;;;;;;;12.65;8.85;;;;;;;6.82;100.00;100500.59;5052227;28;20272;-74
2021/12/13 04:46:49;;;;;;;11.75;7.93;;;;;;;6.96;100.00;100505.56;5051822;28;20183;-74
2021/12/13 04:49:18;;;;;;;12.07;8.63;;;;;;;6.97;100.00;100514.50;5052010;28;20286;-74
2021/12/13 04:51:48;;;;;;;10.77;8.23;;;;;;;6.96;100.00;100515.41;5051349;28;20209;-74
2021/12/13 04:54:16;;;;;;;11.98;8.07;;;;;;;7.07;100.00;100508.81;5051991;28;20294;-74
2021/12/13 04:56:46;;;;;;;11.35;8.32;;;;;;;7.00;100.00;100506.38;5051588;28;20216;-74
2021/12/13 04:59:14;;;;;;;12.57;8.35;;;;;;;7.18;100.00;100511.19;5052919;28;20199;-74
2021/12/13 05:01:44;;;;;;;12.43;8.48;;;;;;;7.17;100.00;100514.78;5055813;28;20210;-74
2021/12/13 05:04:11;;;;;;;12.80;8.38;;;;;;;7.14;100.00;100514.88;5055784;28;20621;-74
2021/12/13 05:06:40;;;;;;;12.73;8.23;;;;;;;7.23;100.00;100514.59;5055541;28;20552;-74
2021/12/13 05:09:10;;;;;;;12.98;8.52;;;;;;;7.41;100.00;100512.28;5055640;28;20197;-74
2021/12/13 05:11:40;;;;;;;11.20;7.72;;;;;;;7.29;100.00;100517.09;5055375;28;20559;-74
2021/12/13 05:14:09;;;;;;;8.93;7.20;;;;;;;7.38;100.00;100518.63;5055449;28;20207;-74
2021/12/13 05:16:43;;;;;;;12.98;7.60;;;;;;;7.43;100.00;100523.84;5055723;28;20210;-74
2021/12/13 05:19:12;;;;;;;11.00;7.45;;;;;;;7.36;100.00;100520.47;5055303;28;20636;-74
2021/12/13 05:21:42;;;;;;;17.50;10.05;;;;;;;7.27;100.00;100528.78;5055009;28;20212;-74
2021/12/13 05:24:13;;;;;;;17.27;10.80;;;;;;;7.16;100.00;100531.78;5055110;28;20191;-74
2021/12/13 05:26:50;;;;;;;11.25;8.10;;;;;;;7.06;100.00;100525.81;5055197;28;20191;-74
2021/12/13 05:29:30;;;;;;;13.60;9.52;;;;;;;7.08;100.00;100531.13;5055210;28;20214;-74
2021/12/13 05:32:04;;;;;;;12.68;9.18;;;;;;;7.18;100.00;100535.28;5054711;28;20243;-74
2021/12/13 05:34:35;;;;;;;26.58;12.35;;;;;;;7.08;100.00;100523.97;5055021;28;20183;-74
2021/12/13 05:37:04;;;;;;;16.30;10.88;;;;;;;7.16;100.00;100534.44;5054946;28;20557;-74
2021/12/13 05:39:31;;;;;;;18.30;9.73;;;;;;;7.12;100.00;100534.59;5054317;28;20228;-74
2021/12/13 05:42:02;;;;;;;13.82;9.57;;;;;;;7.11;100.00;100525.69;5054892;28;20250;-74
2021/12/13 05:44:36;;;;;;;13.35;8.95;;;;;;;7.09;100.00;100538.22;5054573;28;20639;-74
2021/12/13 05:47:07;;;;;;;12.63;8.68;;;;;;;6.98;100.00;100534.97;5054873;28;20630;-73
2021/12/13 05:49:41;;;;;;;13.20;9.15;;;;;;;7.01;100.00;100535.78;5054807;28;20188;-74
2021/12/13 05:52:11;;;;;;;13.10;8.63;;;;;;;6.87;100.00;100537.97;5046779;28;20570;-73
2021/12/13 05:54:43;;;;;;;12.10;8.88;;;;;;;7.00;100.00;100538.50;5054345;28;20195;-73
2021/12/13 05:57:13;;;;;;;11.80;8.50;;;;;;;7.00;100.00;100535.81;5054198;28;20561;-73
2021/12/13 05:59:55;;;;;;;12.68;8.07;;;;;;;6.96;100.00;100547.53;5054526;28;20799;-73
2021/12/13 06:02:42;;;;;;;15.30;9.13;;;;;;;6.87;100.00;100541.53;5054214;28;20186;-75
2021/12/13 06:05:16;;;;;;;12.63;9.02;;;;;;;7.03;100.00;100547.34;5053903;28;20192;-72
2021/12/13 06:07:52;;;;;;;8.00;6.57;;;;;;;7.26;100.00;100545.78;5053959;28;20659;-73
2021/12/13 06:10:21;;;;;;;10.50;7.32;;;;;;;7.17;100.00;100549.63;5034258;28;20203;-72
2021/12/13 06:12:51;;;;;;;10.68;7.32;;;;;;;7.19;100.00;100553.13;5033630;28;20200;-73
2021/12/13 06:15:29;;;;;;;10.55;8.57;;;;;;;7.28;100.00;100562.69;5033834;28;20189;-72
2021/12/13 06:18:19;;;;;;;15.63;8.82;;;;;;;7.31;100.00;100562.59;5034074;28;20189;-74
2021/12/13 06:20:51;;;;;;;13.52;9.30;;;;;;;7.33;100.00;100563.44;5041106;28;20188;-74
2021/12/13 06:23:22;;;;;;;16.50;9.20;;;;;;;7.35;100.00;100561.59;5053654;28;20193;-74
2021/12/13 06:25:57;;;;;;;11.45;7.18;;;;;;;7.37;100.00;100570.47;5053417;28;20202;-74
2021/12/13 06:28:27;;;;;;;14.65;9.52;;;;;;;7.36;100.00;100571.38;5053079;28;20204;-74
2021/12/13 06:31:00;;;;;;;12.70;9.25;;;;;;;7.39;100.00;100567.72;5054781;28;20224;-74
2021/12/13 06:33:28;;;;;;;13.27;9.13;;;;;;;7.20;100.00;100570.06;5053275;28;20196;-75
2021/12/13 06:35:56;;;;;;;17.92;10.20;;;;;;;7.34;100.00;100562.50;5053351;28;20196;-74
2021/12/13 06:38:36;;;;;;;14.98;10.02;;;;;;;7.41;100.00;100563.19;5052323;28;20326;-74
2021/12/13 06:41:08;;;;;;;13.70;9.48;;;;;;;7.44;100.00;100568.47;5052837;28;20189;-75
2021/12/13 06:43:38;;;;;;;18.60;9.18;;;;;;;7.50;100.00;100565.59;5052888;28;20302;-74
2021/12/13 06:46:11;;;;;;;15.82;10.48;;;;;;;7.59;100.00;100575.19;5052571;28;20279;-73
2021/12/13 06:48:42;;;;;;;17.23;9.95;;;;;;;7.56;100.00;100573.47;5052812;28;20285;-74
2021/12/13 06:51:13;;;;;;;19.10;12.63;;;;;;;7.44;100.00;100571.13;5052531;28;20535;-75
2021/12/13 06:53:41;;;;;;;15.80;10.63;;;;;;;7.48;100.00;100570.13;5053165;28;20659;-74
2021/12/13 06:56:20;;;;;;;20.33;11.07;;;;;;;7.56;100.00;100568.09;5052983;28;20274;-74
2021/12/13 06:58:50;;;;;;;20.27;12.05;;;;;;;7.58;100.00;100568.06;5052973;28;20194;-74
2021/12/13 07:01:19;;;;;;;18.10;11.02;;;;;;;7.50;100.00;100568.28;5053087;28;20211;-74
2021/12/13 07:03:54;;;;;;;18.48;11.65;;;;;;;7.55;100.00;100563.66;5052967;28;20644;-74
2021/12/13 07:06:21;;;;;;;17.65;10.55;;;;;;;7.66;100.00;100563.34;5052969;28;20190;-74
2021/12/13 07:09:00;;;;;;;20.45;11.27;;;;;;;7.52;100.00;100566.44;5052970;28;20188;-74
2021/12/13 07:11:39;;;;;;;19.60;11.85;;;;;;;7.20;100.00;100570.06;5052632;28;20225;-74
2021/12/13 07:14:09;;;;;;;21.10;11.32;;;;;;;7.28;100.00;100571.63;5053030;28;20549;-75
2021/12/13 07:16:39;;;;;;;20.50;12.25;;;;;;;7.20;100.00;100573.63;5052965;28;20270;-74
2021/12/13 07:19:18;;;;;;;23.65;11.63;;;;;;;7.07;100.00;100573.09;5052301;28;20235;-75
2021/12/13 07:21:49;;;;;;;23.45;13.50;;;;;;;7.10;100.00;100572.16;5050210;28;20615;-74
2021/12/13 07:24:19;;;;;;;24.00;13.27;;;;;;;7.20;100.00;100568.25;5052004;28;20204;-75
2021/12/13 07:26:53;;;;;;;21.00;11.60;;;;;;;7.24;100.00;100563.72;5052873;28;20193;-75
2021/12/13 07:29:23;;;;;;;23.83;12.77;;;;;;;7.22;100.00;100565.56;5052814;28;20199;-74
2021/12/13 07:32:08;;;;;;;26.77;13.05;;;;;;;7.39;100.00;100570.41;5052713;28;20657;-74
2021/12/13 07:34:48;;;;;;;18.48;10.40;;;;;;;7.40;100.00;100566.81;5052555;28;20192;-76
2021/12/13 07:37:16;;;;;;;21.05;10.35;;;;;;;7.34;100.00;100564.31;5052199;28;20214;-76
2021/12/13 07:39:43;;;;;;;26.95;12.60;;;;;;;7.31;100.00;100565.28;5051988;28;20240;-75
2021/12/13 07:42:13;;;;;;;30.98;12.73;;;;;;;7.40;100.00;100566.81;5052391;28;20196;-76
2021/12/13 07:44:43;;;;;;;18.55;11.45;;;;;;;7.50;100.00;100562.94;5052154;28;20222;-76
2021/12/13 07:47:14;;;;;;;23.65;12.40;;;;;;;7.42;100.00;100573.00;5052625;28;20280;-74
2021/12/13 07:49:43;;;;;;;19.58;11.43;;;;;;;7.43;100.00;100569.41;5052593;28;20212;-75
2021/12/13 07:52:22;;;;;;;23.65;12.10;;;;;;;7.31;100.00;100576.00;5052263;28;20246;-76
2021/12/13 07:54:49;;;;;;;24.98;12.85;;;;;;;7.51;100.00;100576.28;5052783;28;20677;-77
2021/12/13 07:57:21;;;;;;;23.88;11.77;;;;;;;7.50;100.00;100576.31;5052666;28;20243;-76
2021/12/13 07:59:50;;;;;;;16.85;10.27;;;;;;;7.35;100.00;100579.44;5052170;28;20703;-76
2021/12/13 08:02:27;;;;;;;17.10;9.65;;;;;;;7.55;100.00;100578.88;5052258;28;20207;-76
2021/12/13 08:04:57;;;;;;;19.85;10.45;;;;;;;7.36;100.00;100579.41;5052240;28;20622;-76
2021/12/13 08:07:27;;;;;;;18.52;9.50;;;;;;;7.36;100.00;100579.41;5052701;28;20203;-75
2021/12/13 08:09:57;;;;;;;17.55;9.15;;;;;;;7.40;100.00;100572.19;5052190;28;20233;-76
2021/12/13 08:12:27;;;;;;;17.00;10.07;;;;;;;7.36;100.00;100567.81;5052153;28;20205;-76
2021/12/13 08:14:57;;;;;;;19.08;10.57;;;;;;;7.22;100.00;100570.91;5052331;28;20203;-76
2021/12/13 08:17:29;;;;;;;25.10;11.05;;;;;;;7.20;100.00;100562.91;5052317;28;20309;-75
2021/12/13 08:19:58;;;;;;;17.65;10.82;;;;;;;7.43;100.00;100569.41;5052174;28;20472;-75
2021/12/13 08:22:28;;;;;;;24.65;10.75;;;;;;;7.49;100.00;100569.22;5052234;28;20182;-75
2021/12/13 08:24:59;;;;;;;20.63;11.50;;;;;;;7.52;100.00;100569.13;5052222;28;20193;-75
2021/12/13 08:27:29;;;;;;;18.45;10.45;;;;;;;7.64;100.00;100571.44;5052410;28;20184;-74
2021/12/13 08:30:10;;;;;;;18.63;10.90;;;;;;;7.66;100.00;100574.06;5051582;28;20209;-76
2021/12/13 08:32:55;;;;;;;19.65;11.27;;;;;;;7.56;100.00;100576.16;5052615;28;20228;-75
2021/12/13 08:35:22;;;;;;;20.58;11.57;;;;;;;7.56;100.00;100576.16;5055003;28;20328;-74
2021/12/13 08:37:56;;;;;;;23.80;11.90;;;;;;;7.63;100.00;100569.66;5055733;28;20317;-76
2021/12/13 08:40:27;;;;;;;24.38;11.60;;;;;;;7.84;100.00;100578.84;5055743;28;20276;-76
2021/12/13 08:42:55;;;;;;;19.45;12.75;;;;;;;7.89;100.00;100587.66;5056085;28;20195;-76
2021/12/13 08:45:27;;;;;;;20.27;11.98;;;;;;;7.79;100.00;100580.81;5055581;28;20203;-75
2021/12/13 08:48:00;;;;;;;16.27;10.90;;;;;;;7.82;100.00;100583.38;5055572;28;20195;-76
2021/12/13 08:50:32;;;;;;;20.60;11.10;;;;;;;8.08;100.00;100587.94;5055743;28;20554;-76
2021/12/13 08:53:03;;;;;;;17.30;9.90;;;;;;;8.36;96.45;100584.34;5055144;28;20210;-76
2021/12/13 08:55:36;;;;;;;17.92;11.00;;;;;;;8.25;95.77;100581.13;5055531;28;20201;-76
2021/12/13 08:58:14;;;;;;;17.10;10.15;;;;;;;8.14;97.53;100594.91;5055183;28;20299;-76
2021/12/13 09:00:51;;;;;;;16.30;10.15;;;;;;;8.18;97.88;100587.63;5055363;28;20239;-75
2021/12/13 09:03:30;;;;;;;15.13;9.93;;;;;;;8.20;98.94;100593.81;5055728;28;20682;-76
2021/12/13 09:06:05;;;;;;;13.60;9.35;;;;;;;8.19;97.86;100584.03;5055646;28;20644;-75
2021/12/13 09:08:36;;;;;;;12.80;9.90;;;;;;;8.34;97.49;100586.19;5055696;28;20287;-74
2021/12/13 09:11:14;;;;;;;14.52;9.52;;;;;;;8.31;96.52;100591.66;5055603;28;20189;-76
2021/12/13 09:13:44;;;;;;;11.50;7.57;;;;;;;8.45;94.97;100593.94;5055483;28;20181;-76
2021/12/13 09:16:17;;;;;;;11.98;7.82;;;;;;;8.45;94.04;100592.13;5055282;28;20661;-75
2021/12/13 09:18:45;;;;;;;11.55;8.05;;;;;;;8.46;95.63;100593.88;5055173;28;20193;-75
2021/12/13 09:21:18;;;;;;;11.77;9.00;;;;;;;8.38;94.30;100603.94;5055384;28;20633;-74
2021/12/13 09:23:48;;;;;;;14.13;7.10;;;;;;;8.48;94.03;100597.41;5054744;28;20202;-76
2021/12/13 09:26:19;;;;;;;11.43;7.60;;;;;;;8.54;92.68;100599.84;5054885;28;20642;-75
2021/12/13 09:28:50;;;;;;;12.10;8.23;;;;;;;8.43;93.22;100603.84;5054787;28;20632;-75
2021/12/13 09:31:21;;;;;;;12.80;7.78;;;;;;;8.34;92.96;100600.50;5054983;28;20572;-75
2021/12/13 09:33:53;;;;;;;11.85;8.90;;;;;;;8.47;93.66;100608.19;5054898;28;20610;-75
2021/12/13 09:36:22;;;;;;;11.82;9.23;;;;;;;8.52;93.51;100608.88;5054672;28;20194;-76
2021/12/13 09:38:54;;;;;;;15.63;8.77;;;;;;;8.58;94.06;100610.50;5054637;28;20236;-74
2021/12/13 09:41:42;;;;;;;12.10;8.77;;;;;;;8.51;93.00;100608.03;5055088;28;20700;-75
2021/12/13 09:44:21;;;;;;;12.48;10.23;;;;;;;8.74;92.79;100623.34;5054738;28;20207;-75
2021/12/13 09:46:52;;;;;;;16.73;10.32;;;;;;;8.70;91.90;100616.31;5053822;28;20186;-76
2021/12/13 09:49:29;;;;;;;13.60;10.20;;;;;;;8.76;91.51;100607.19;5054735;28;20206;-76
2021/12/13 09:52:02;;;;;;;12.50;9.80;;;;;;;8.97;91.06;100602.88;5054672;28;20316;-76
2021/12/13 09:54:32;;;;;;;14.25;10.00;;;;;;;9.09;89.83;100605.13;5054595;28;20186;-76
2021/12/13 09:57:02;;;;;;;12.18;8.35;;;;;;;9.20;89.23;100610.09;5054380;28;20527;-76
2021/12/13 09:59:41;;;;;;;12.30;8.93;;;;;;;9.34;88.21;100613.16;5034574;28;20210;-75
2021/12/13 10:02:15;;;;;;;11.45;8.60;;;;;;;9.42;87.55;100615.56;5033850;28;20276;-76
2021/12/13 10:04:44;;;;;;;16.85;9.55;;;;;;;9.52;86.88;100619.69;5033877;28;20194;-76
2021/12/13 10:07:13;;;;;;;12.63;9.38;;;;;;;9.30;87.51;100607.97;5033483;28;20187;-74
2021/12/13 10:09:43;;;;;;;13.23;8.70;;;;;;;9.29;86.43;100607.06;5033321;28;20197;-74
2021/12/13 10:12:15;;;;;;;12.48;8.90;;;;;;;9.30;86.97;100602.59;5033649;28;20222;-74
2021/12/13 10:14:47;;;;;;;12.43;8.85;;;;;;;9.30;87.45;100606.16;5033796;28;20201;-75
2021/12/13 10:17:16;;;;;;;19.73;13.45;;;;;;;9.47;87.29;100599.25;5033846;28;20282;-75
2021/12/13 10:19:49;;;;;;;19.55;11.93;;;;;;;9.26;88.32;100598.25;5033781;28;20209;-76
2021/12/13 10:22:19;;;;;;;19.70;13.63;;;;;;;9.36;88.42;100597.88;5033607;28;20528;-75
2021/12/13 10:24:50;;;;;;;16.30;11.30;;;;;;;9.45;88.38;100598.44;5033478;28;20649;-75
2021/12/13 10:27:19;;;;;;;13.20;9.85;;;;;;;9.47;87.88;100594.75;5033238;28;20202;-75
2021/12/13 10:29:48;;;;;;;9.82;8.23;;;;;;;9.46;86.48;100597.53;5033238;28;20294;-75
2021/12/13 10:32:19;;;;;;;14.68;8.55;;;;;;;9.21;88.49;100594.88;5033375;28;20328;-75
2021/12/13 10:34:53;;;;;;;13.80;11.05;;;;;;;9.07;90.40;100588.19;5033610;28;20212;-76
2021/12/13 10:37:22;;;;;;;13.10;9.20;;;;;;;8.92;91.54;100584.22;5032799;28;20190;-76
2021/12/13 10:39:55;;;;;;;11.88;8.63;;;;;;;8.84;92.01;100580.06;5033178;28;20222;-75
2021/12/13 10:42:26;;;;;;;11.27;8.50;;;;;;;9.02;90.41;100581.22;5033295;28;20193;-76
2021/12/13 10:44:54;;;;;;;13.93;9.95;;;;;;;9.12;89.97;100575.44;5033146;28;20260;-75
2021/12/13 10:47:24;;;;;;;14.85;10.80;;;;;;;9.21;89.92;100581.44;5032996;28;20198;-75
2021/12/13 10:49:54;;;;;;;14.27;11.50;;;;;;;9.12;91.09;100574.59;5033072;28;20611;-75
2021/12/13 10:52:28;;;;;;;12.75;10.35;;;;;;;8.68;93.23;100547.50;5032744;28;20302;-75
2021/12/13 10:54:58;;;;;;;13.93;10.07;;;;;;;8.69;95.30;100554.63;5032490;28;20197;-75
2021/12/13 10:57:27;;;;;;;13.95;10.65;;;;;;;8.67;94.52;100545.75;5033357;28;20187;-74
2021/12/13 10:59:55;;;;;;;14.00;9.82;;;;;;;8.73;94.98;100548.22;5052963;28;20525;-76
2021/12/13 11:02:29;;;;;;;12.65;8.32;;;;;;;8.23;96.95;100551.69;5052437;28;20204;-74
2021/12/13 11:05:01;;;;;;;12.35;9.32;;;;;;;8.40;98.49;100553.81;5052525;28;20213;-74
2021/12/13 11:07:29;;;;;;;13.23;8.95;;;;;;;8.65;97.31;100542.25;5052270;28;20186;-75
2021/12/13 11:09:59;;;;;;;13.57;8.85;;;;;;;9.03;96.21;100542.69;5052885;28;20213;-75
2021/12/13 11:12:30;;;;;;;13.13;11.07;;;;;;;9.44;93.38;100542.94;5052360;28;20317;-75
2021/12/13 11:15:00;;;;;;;12.13;9.38;;;;;;;9.57;91.56;100550.47;5052167;28;20221;-76
2021/12/13 11:17:30;;;;;;;7.60;5.95;;;;;;;9.82;88.75;100545.00;5051942;28;20312;-75
2021/12/13 11:20:05;;;;;;;7.18;6.43;;;;;;;10.12;87.63;100533.03;5052645;28;20198;-75
2021/12/13 11:22:33;;;;;;;10.95;8.07;;;;;;;10.33;85.28;100539.38;5052623;28;20192;-76
2021/12/13 11:25:06;;;;;;;13.73;10.50;;;;;;;10.11;86.29;100532.19;5052292;28;20285;-74
2021/12/13 11:27:34;;;;;;;10.55;6.97;;;;;;;9.21;91.16;100531.25;5052586;28;20206;-76
2021/12/13 11:30:05;;;;;;;10.82;6.95;;;;;;;9.37;91.25;100527.03;5052214;28;20197;-76
2021/12/13 11:33:09;;;;;;;10.15;7.05;;;;;;;9.19;92.10;100528.59;5052592;28;20352;-76
2021/12/13 11:36:20;;;;;;;9.40;6.90;;;;;;;9.26;91.78;100540.00;5052049;28;20611;-76
2021/12/13 11:39:13;;;;;;;21.70;14.30;;;;;;;9.43;92.25;100531.31;5051658;28;20763;-75
2021/12/13 11:42:08;;;;;;;13.93;9.05;;;;;;;9.50;91.35;100531.94;5052160;28;20205;-74
2021/12/13 11:44:52;;;;;;;10.50;8.50;;;;;;;9.52;91.97;100532.75;5039111;28;20212;-75
2021/12/13 11:47:53;;;;;;;9.55;7.82;;;;;;;10.01;88.37;100520.91;5051815;28;20201;-75